Time;durP1;ratioP1;P1;durP2;ratioP2;P2;SDS_P1;SDS_P2;PMS_P1;PMS_P2;Temp;Humidity;BMP_temperature;BMP_pressure;BME280_temperature;BME280_humidity;BME280_pressure;Samples;Min_cycle;Max_cycle;Signal;HPM_P1;HPM_P2
2023/05/03 00:02:00;;;;;;;8.60;4.45;;;5.40;99.90;;;;;;5025361;28;20079;-81
2023/05/03 00:04:26;;;;;;;7.80;4.35;;;5.40;99.90;;;;;;5023413;28;20112;-80
2023/05/03 00:06:52;;;;;;;9.52;4.82;;;5.20;99.90;;;;;;5008300;28;20128;-81
2023/05/03 00:09:17;;;;;;;9.10;3.92;;;5.20;99.90;;;;;;5022817;28;20492;-81
2023/05/03 00:11:43;;;;;;;9.07;4.60;;;5.20;99.90;;;;;;5026194;28;20064;-81
2023/05/03 00:14:08;;;;;;;13.95;4.57;;;5.20;99.90;;;;;;5024800;28;20032;-80
2023/05/03 00:16:34;;;;;;;8.02;4.53;;;4.90;99.90;;;;;;5023922;28;20381;-81
2023/05/03 00:18:59;;;;;;;9.85;5.13;;;4.40;99.90;;;;;;5023000;28;20107;-81
2023/05/03 00:21:25;;;;;;;7.35;4.97;;;4.30;99.90;;;;;;5024101;28;20124;-80
2023/05/03 00:23:51;;;;;;;9.30;5.00;;;4.50;99.90;;;;;;5039152;28;20508;-80
2023/05/03 00:26:17;;;;;;;5.95;4.85;;;4.50;99.90;;;;;;5021130;28;20044;-80
2023/05/03 00:28:42;;;;;;;8.95;4.95;;;4.30;99.90;;;;;;5005291;28;20048;-80
2023/05/03 00:31:08;;;;;;;8.82;5.28;;;4.20;99.90;;;;;;5039586;28;20036;-80
2023/05/03 00:33:35;;;;;;;10.65;5.45;;;4.20;99.90;;;;;;5009111;28;20036;-80
2023/05/03 00:36:07;;;;;;;11.45;5.57;;;4.40;99.90;;;;;;5014153;28;20072;-80
2023/05/03 00:38:32;;;;;;;10.85;5.80;;;4.50;99.90;;;;;;5021567;28;20029;-81
2023/05/03 00:40:58;;;;;;;15.85;5.60;;;4.50;99.90;;;;;;5006721;28;20045;-80
2023/05/03 00:43:23;;;;;;;11.43;5.60;;;4.60;99.90;;;;;;5023912;28;20082;-80
2023/05/03 00:45:50;;;;;;;9.30;5.90;;;4.70;99.90;;;;;;5025195;28;20045;-80
2023/05/03 00:48:17;;;;;;;11.20;5.63;;;4.60;99.90;;;;;;5024890;28;20451;-80
2023/05/03 00:50:43;;;;;;;13.48;5.28;;;4.20;99.90;;;;;;5027202;28;20083;-80
2023/05/03 00:53:08;;;;;;;13.82;5.55;;;4.10;99.90;;;;;;5013263;28;20033;-80
2023/05/03 00:55:34;;;;;;;8.95;5.55;;;4.10;99.90;;;;;;5027698;28;20033;-80
2023/05/03 00:58:00;;;;;;;9.07;5.68;;;4.20;99.90;;;;;;5011452;28;20043;-80
2023/05/03 01:00:25;;;;;;;13.52;5.85;;;4.20;99.90;;;;;;5026845;28;20778;-80
2023/05/03 01:02:51;;;;;;;8.50;5.93;;;4.30;99.90;;;;;;5011106;28;20051;-80
2023/05/03 01:05:16;;;;;;;7.82;4.88;;;4.40;99.90;;;;;;5011536;28;20029;-80
2023/05/03 01:08:01;;;;;;;7.78;5.40;;;4.40;99.90;;;;;;5027443;28;20052;-80
2023/05/03 01:10:49;;;;;;;6.60;4.55;;;4.40;99.90;;;;;;5044556;28;20052;-80
2023/05/03 01:13:37;;;;;;;8.60;5.53;;;4.30;99.90;;;;;;5026050;28;20765;-80
2023/05/03 01:16:26;;;;;;;8.45;5.53;;;4.20;99.90;;;;;;5012958;28;20113;-80
2023/05/03 01:18:53;;;;;;;10.07;5.93;;;4.10;99.90;;;;;;5023909;28;20036;-80
2023/05/03 01:21:19;;;;;;;8.50;6.15;;;4.10;99.90;;;;;;5010653;28;20497;-80
2023/05/03 01:24:05;;;;;;;9.05;5.65;;;3.90;99.90;;;;;;5028064;28;20071;-80
2023/05/03 01:26:32;;;;;;;;;;;4.00;99.90;;;;;;5028622;28;20029;-80
2023/05/03 01:28:59;;;;;;;;;;;4.10;99.90;;;;;;5046128;28;19921;-80
2023/05/03 01:31:36;;;;;;;9.93;5.88;;;4.10;99.90;;;;;;5044257;28;19915;-81
2023/05/03 01:34:27;;;;;;;9.15;5.43;;;4.00;99.90;;;;;;5027128;28;20347;-80
2023/05/03 01:36:54;;;;;;;12.15;5.63;;;4.00;99.90;;;;;;5027481;28;20045;-80
2023/05/03 01:39:47;;;;;;;13.15;5.90;;;4.10;99.90;;;;;;5028470;28;20039;-80
2023/05/03 01:42:13;;;;;;;10.25;6.05;;;4.10;99.90;;;;;;5040664;28;20048;-80
2023/05/03 01:44:38;;;;;;;11.77;5.85;;;4.00;99.90;;;;;;5028075;28;20036;-80
2023/05/03 01:47:04;;;;;;;9.20;5.53;;;4.00;99.90;;;;;;5006020;28;20129;-80
2023/05/03 01:49:30;;;;;;;10.27;5.40;;;3.90;99.90;;;;;;5026236;28;20041;-80
2023/05/03 01:51:55;;;;;;;12.32;6.03;;;3.90;99.90;;;;;;5023803;28;20044;-80
2023/05/03 01:54:21;;;;;;;10.68;5.68;;;3.90;99.90;;;;;;5024261;28;20141;-80
2023/05/03 01:56:46;;;;;;;13.60;6.95;;;3.90;99.90;;;;;;5026854;28;20045;-80
2023/05/03 01:59:12;;;;;;;13.52;6.20;;;3.90;99.90;;;;;;5026233;28;20112;-80
2023/05/03 02:01:37;;;;;;;8.73;6.07;;;3.90;99.90;;;;;;5011038;28;20068;-80
2023/05/03 02:04:03;;;;;;;9.88;6.22;;;3.80;99.90;;;;;;5023890;28;20484;-80
2023/05/03 02:06:28;;;;;;;13.63;6.28;;;3.70;99.90;;;;;;5009498;28;20366;-80
2023/05/03 02:08:54;;;;;;;8.52;5.55;;;3.70;99.90;;;;;;5011069;28;20370;-80
2023/05/03 02:11:20;;;;;;;10.68;5.57;;;3.70;99.90;;;;;;5024047;28;20086;-80
2023/05/03 02:13:47;;;;;;;10.00;6.35;;;3.50;99.90;;;;;;5009548;28;20032;-80
2023/05/03 02:16:13;;;;;;;10.60;6.13;;;3.50;99.90;;;;;;5021203;28;20091;-80
2023/05/03 02:18:38;;;;;;;12.27;6.85;;;3.50;99.90;;;;;;5010273;28;20029;-80
2023/05/03 02:21:04;;;;;;;11.48;6.60;;;3.50;99.90;;;;;;5027939;28;20037;-80
2023/05/03 02:23:30;;;;;;;13.68;6.78;;;3.50;99.90;;;;;;5024743;28;20121;-79
2023/05/03 02:25:57;;;;;;;12.73;6.90;;;3.40;99.90;;;;;;5024065;28;20053;-80
2023/05/03 02:28:22;;;;;;;9.43;6.05;;;3.40;99.90;;;;;;5040492;28;20663;-80
2023/05/03 02:30:48;;;;;;;12.20;7.30;;;3.40;99.90;;;;;;5010186;28;20033;-80
2023/05/03 02:33:14;;;;;;;12.52;6.78;;;3.40;99.90;;;;;;5023960;28;20053;-79
2023/05/03 02:35:42;;;;;;;15.27;8.20;;;3.20;99.90;;;;;;5025991;28;20544;-80
2023/05/03 02:38:08;;;;;;;13.85;6.28;;;3.10;99.90;;;;;;5025443;28;20090;-80
2023/05/03 02:40:33;;;;;;;13.00;7.50;;;3.10;99.90;;;;;;5021365;28;20038;-80
2023/05/03 02:42:59;;;;;;;11.43;7.28;;;3.10;99.90;;;;;;5009530;28;20025;-80
2023/05/03 02:45:25;;;;;;;13.23;7.35;;;3.10;99.90;;;;;;5026118;28;20029;-80
2023/05/03 02:47:50;;;;;;;13.60;8.13;;;2.90;99.90;;;;;;5024897;28;20029;-80
2023/05/03 02:50:16;;;;;;;12.70;7.80;;;2.70;99.90;;;;;;5004861;28;20086;-80
2023/05/03 02:52:42;;;;;;;16.48;7.57;;;2.80;99.90;;;;;;5010535;28;20036;-79
2023/05/03 02:55:08;;;;;;;10.45;6.03;;;2.90;99.90;;;;;;5028097;28;20025;-80
2023/05/03 02:57:33;;;;;;;18.13;7.65;;;3.00;99.90;;;;;;5021780;28;20119;-80
2023/05/03 02:59:59;;;;;;;17.75;8.18;;;3.10;99.90;;;;;;5007041;28;20036;-80
2023/05/03 03:02:25;;;;;;;16.63;7.68;;;3.00;99.90;;;;;;5008808;28;20030;-80
2023/05/03 03:04:50;;;;;;;13.80;8.18;;;3.00;99.90;;;;;;5009299;28;20025;-80
2023/05/03 03:07:16;;;;;;;16.48;8.20;;;2.90;99.90;;;;;;5023561;28;20033;-80
2023/05/03 03:09:41;;;;;;;16.33;9.02;;;2.70;99.90;;;;;;5007781;28;20443;-80
2023/05/03 03:12:07;;;;;;;14.73;8.20;;;2.70;99.90;;;;;;5025774;28;20489;-80
2023/05/03 03:14:32;;;;;;;18.05;8.40;;;2.70;99.90;;;;;;5023901;28;20026;-80
2023/05/03 03:16:59;;;;;;;13.50;8.77;;;2.70;99.90;;;;;;5025834;28;20341;-81
2023/05/03 03:19:24;;;;;;;16.40;8.52;;;2.60;99.90;;;;;;5011184;28;20056;-80
2023/05/03 03:21:50;;;;;;;14.77;8.68;;;2.70;99.90;;;;;;5006583;28;20040;-80
2023/05/03 03:24:16;;;;;;;14.15;8.60;;;2.60;99.90;;;;;;5023820;28;20510;-80
2023/05/03 03:26:41;;;;;;;15.07;8.57;;;2.60;99.90;;;;;;5025289;28;20068;-81
2023/05/03 03:29:08;;;;;;;14.95;9.00;;;2.60;99.90;;;;;;5007338;28;20089;-81
2023/05/03 03:31:34;;;;;;;17.13;9.07;;;2.50;99.90;;;;;;5005500;28;20025;-81
2023/05/03 03:34:00;;;;;;;16.15;8.63;;;2.40;99.90;;;;;;5008401;28;20348;-80
2023/05/03 03:36:26;;;;;;;17.88;9.07;;;2.40;99.90;;;;;;5025552;28;20033;-80
2023/05/03 03:38:52;;;;;;;13.80;8.57;;;2.40;99.90;;;;;;5010746;28;20036;-80
2023/05/03 03:41:18;;;;;;;18.08;8.50;;;2.30;99.90;;;;;;5010724;28;20033;-80
2023/05/03 03:43:44;;;;;;;13.60;8.75;;;2.20;99.90;;;;;;5027012;28;20029;-80
2023/05/03 03:46:09;;;;;;;14.63;8.52;;;2.10;99.90;;;;;;5023502;28;20044;-80
2023/05/03 03:48:35;;;;;;;21.95;9.05;;;2.10;99.90;;;;;;5009692;28;20033;-80
2023/05/03 03:51:00;;;;;;;11.40;7.95;;;2.00;99.90;;;;;;5042842;28;20108;-80
2023/05/03 03:53:26;;;;;;;13.90;8.73;;;1.90;99.90;;;;;;5009864;28;20429;-80
2023/05/03 03:55:51;;;;;;;12.70;8.15;;;2.00;99.90;;;;;;5018711;28;20550;-80
2023/05/03 03:58:17;;;;;;;15.57;8.60;;;2.00;99.90;;;;;;5007498;28;20060;-80
2023/05/03 04:00:42;;;;;;;18.00;8.77;;;2.00;99.90;;;;;;5009947;28;20033;-80
2023/05/03 04:03:08;;;;;;;16.90;8.50;;;2.00;99.90;;;;;;5027199;28;20033;-80
2023/05/03 04:05:34;;;;;;;17.10;8.57;;;2.10;99.90;;;;;;5024701;28;20060;-80
2023/05/03 04:07:59;;;;;;;17.63;8.60;;;2.10;99.90;;;;;;5041824;28;20033;-80
2023/05/03 04:10:25;;;;;;;17.83;8.48;;;2.10;99.90;;;;;;5009852;28;20033;-80
2023/05/03 04:12:50;;;;;;;11.05;7.43;;;2.10;99.90;;;;;;5021672;28;20405;-80
2023/05/03 04:15:16;;;;;;;14.63;8.15;;;2.10;99.90;;;;;;5026172;28;20108;-80
2023/05/03 04:17:42;;;;;;;19.00;9.13;;;2.00;99.90;;;;;;5041898;28;20060;-80
2023/05/03 04:20:09;;;;;;;18.13;8.50;;;2.10;99.90;;;;;;5008527;28;20025;-80
2023/05/03 04:22:36;;;;;;;16.17;8.80;;;2.10;99.90;;;;;;5025890;28;20033;-80
2023/05/03 04:25:02;;;;;;;13.70;7.75;;;2.10;99.90;;;;;;5025342;28;20037;-80
2023/05/03 04:27:29;;;;;;;14.88;8.23;;;2.10;99.90;;;;;;5013820;28;20247;-80
2023/05/03 04:29:54;;;;;;;16.23;9.63;;;2.10;99.90;;;;;;5030234;28;20064;-80
2023/05/03 04:32:22;;;;;;;16.42;9.82;;;2.20;99.90;;;;;;5030020;28;20544;-80
2023/05/03 04:34:50;;;;;;;18.77;9.07;;;2.10;99.90;;;;;;5029141;28;20489;-80
2023/05/03 04:37:16;;;;;;;19.88;9.95;;;2.20;99.90;;;;;;5009241;28;20044;-80
2023/05/03 04:39:42;;;;;;;16.00;9.95;;;2.30;99.90;;;;;;5026629;28;20114;-80
2023/05/03 04:42:07;;;;;;;17.60;10.13;;;2.40;99.90;;;;;;5030279;28;20040;-81
2023/05/03 04:44:33;;;;;;;20.08;9.68;;;2.60;99.90;;;;;;5030316;28;20477;-80
2023/05/03 04:46:58;;;;;;;20.40;11.70;;;2.60;99.90;;;;;;5027577;28;20044;-79
2023/05/03 04:49:24;;;;;;;19.23;10.45;;;2.80;99.90;;;;;;5028502;28;20065;-81
2023/05/03 04:51:50;;;;;;;19.88;11.13;;;2.90;99.90;;;;;;5028778;28;20164;-81
2023/05/03 04:54:16;;;;;;;19.67;12.15;;;3.00;99.90;;;;;;5028015;28;20083;-80
2023/05/03 04:56:41;;;;;;;23.17;12.60;;;3.10;99.90;;;;;;5044889;28;20032;-81
2023/05/03 04:59:07;;;;;;;22.23;13.02;;;3.20;99.90;;;;;;5017566;28;20036;-80
2023/05/03 05:01:33;;;;;;;24.77;11.90;;;3.20;99.90;;;;;;5026810;28;20112;-79
2023/05/03 05:03:58;;;;;;;25.15;13.40;;;3.40;99.90;;;;;;5044396;28;20116;-80
2023/05/03 05:06:24;;;;;;;24.63;14.32;;;3.40;99.90;;;;;;5029289;28;20028;-78
2023/05/03 05:08:50;;;;;;;33.05;14.00;;;3.50;99.90;;;;;;5028496;28;20037;-79
2023/05/03 05:11:16;;;;;;;27.52;15.70;;;3.60;99.90;;;;;;5009333;28;20044;-79
2023/05/03 05:13:41;;;;;;;35.20;14.98;;;3.70;99.90;;;;;;5028061;28;20032;-80
2023/05/03 05:16:07;;;;;;;24.70;13.32;;;3.90;99.90;;;;;;5023435;28;20477;-79
2023/05/03 05:18:33;;;;;;;26.98;14.55;;;4.00;99.90;;;;;;5024925;28;20042;-79
2023/05/03 05:20:59;;;;;;;24.95;14.55;;;4.10;99.90;;;;;;5044276;28;20040;-79
2023/05/03 05:23:24;;;;;;;29.60;15.85;;;4.30;99.90;;;;;;5042955;28;20048;-80
2023/05/03 05:25:50;;;;;;;26.80;17.25;;;4.20;99.90;;;;;;5026861;28;20057;-79
2023/05/03 05:28:16;;;;;;;35.38;15.90;;;4.40;99.90;;;;;;5010620;28;20036;-79
2023/05/03 05:30:41;;;;;;;25.15;14.23;;;4.50;99.90;;;;;;5011495;28;20028;-79
2023/05/03 05:33:07;;;;;;;34.53;18.10;;;4.70;99.90;;;;;;5027503;28;20091;-79
2023/05/03 05:35:32;;;;;;;27.70;16.35;;;4.90;99.90;;;;;;5045446;28;20024;-79
2023/05/03 05:37:58;;;;;;;27.95;16.98;;;5.00;99.90;;;;;;5043698;28;20039;-79
2023/05/03 05:40:23;;;;;;;30.70;16.98;;;5.00;99.90;;;;;;5011637;28;20078;-79
2023/05/03 05:42:49;;;;;;;29.45;15.25;;;5.20;99.90;;;;;;5043197;28;20045;-79
2023/05/03 05:45:15;;;;;;;25.42;14.13;;;5.40;99.90;;;;;;5026881;28;20036;-79
2023/05/03 05:47:40;;;;;;;25.30;16.38;;;5.60;99.90;;;;;;5028111;28;20060;-79
2023/05/03 05:50:06;;;;;;;21.27;14.63;;;5.80;99.90;;;;;;5026656;28;20044;-79
2023/05/03 05:52:32;;;;;;;28.08;15.10;;;6.00;99.90;;;;;;5024895;28;20098;-79
2023/05/03 05:54:58;;;;;;;24.58;14.48;;;6.10;99.90;;;;;;5041112;28;20029;-79
2023/05/03 05:57:23;;;;;;;26.77;17.17;;;6.30;99.90;;;;;;5026123;28;20065;-78
2023/05/03 05:59:49;;;;;;;23.60;16.38;;;6.40;99.90;;;;;;5026467;28;20041;-78
2023/05/03 06:02:15;;;;;;;22.85;15.25;;;6.50;99.90;;;;;;5027211;28;20033;-78
2023/05/03 06:04:41;;;;;;;21.40;15.65;;;6.70;99.90;;;;;;5044730;28;20032;-79
2023/05/03 06:07:07;;;;;;;20.55;12.95;;;6.90;99.90;;;;;;5008001;28;20028;-79
2023/05/03 06:09:32;;;;;;;20.48;12.98;;;7.00;99.90;;;;;;5042301;28;20086;-78
2023/05/03 06:11:58;;;;;;;18.92;13.35;;;7.20;99.90;;;;;;5025289;28;20047;-78
2023/05/03 06:14:23;;;;;;;17.27;12.23;;;7.30;99.90;;;;;;5043728;28;20033;-78
2023/05/03 06:16:49;;;;;;;15.95;10.00;;;7.40;99.90;;;;;;5026677;28;20068;-79
2023/05/03 06:19:14;;;;;;;16.27;9.32;;;7.60;99.90;;;;;;5024884;28;20566;-78
2023/05/03 06:21:40;;;;;;;13.75;7.95;;;7.70;99.90;;;;;;5042739;28;20398;-78
2023/05/03 06:24:05;;;;;;;14.60;8.77;;;7.90;99.90;;;;;;5026420;28;20527;-78
2023/05/03 06:26:31;;;;;;;15.10;8.00;;;8.10;99.90;;;;;;5026108;28;20037;-78
2023/05/03 06:28:56;;;;;;;11.48;7.10;;;8.20;99.90;;;;;;5007560;28;20147;-78
2023/05/03 06:31:22;;;;;;;12.95;8.18;;;8.30;99.90;;;;;;5026041;28;20108;-77
2023/05/03 06:33:47;;;;;;;15.43;7.70;;;8.50;99.90;;;;;;5010523;28;20511;-78
2023/05/03 06:36:13;;;;;;;14.82;8.00;;;8.70;99.90;;;;;;5041757;28;20660;-77
2023/05/03 06:38:39;;;;;;;16.15;7.60;;;8.90;99.90;;;;;;5026620;28;20505;-77
2023/05/03 06:41:05;;;;;;;13.75;7.05;;;9.00;99.90;;;;;;5007597;28;20091;-78
2023/05/03 06:43:30;;;;;;;13.15;7.05;;;9.20;99.90;;;;;;5033917;28;20029;-78
2023/05/03 06:45:56;;;;;;;8.88;5.95;;;9.30;99.90;;;;;;5008656;28;20029;-78
2023/05/03 06:48:22;;;;;;;14.07;7.25;;;9.50;99.90;;;;;;5025978;28;20067;-78
2023/05/03 06:50:48;;;;;;;13.13;7.53;;;9.60;99.90;;;;;;5005157;28;20037;-78
2023/05/03 06:53:13;;;;;;;7.78;5.90;;;9.80;99.90;;;;;;5008604;28;20091;-78
2023/05/03 06:55:41;;;;;;;14.52;7.55;;;10.00;99.90;;;;;;5037385;28;20729;-78
2023/05/03 06:58:10;;;;;;;10.07;6.00;;;10.10;99.90;;;;;;5006221;28;20033;-78
2023/05/03 07:00:37;;;;;;;7.78;5.53;;;10.20;99.90;;;;;;5023152;28;20033;-79
2023/05/03 07:03:04;;;;;;;9.82;5.80;;;10.30;99.90;;;;;;5024020;28;20041;-78
2023/05/03 07:05:30;;;;;;;14.45;7.85;;;10.60;99.90;;;;;;5025525;28;20041;-78
2023/05/03 07:07:55;;;;;;;14.50;6.72;;;10.70;99.90;;;;;;5007951;28;20791;-78
2023/05/03 07:10:21;;;;;;;8.80;4.63;;;10.90;99.90;;;;;;5025395;28;20305;-78
2023/05/03 07:12:46;;;;;;;12.27;6.57;;;10.90;99.90;;;;;;5026322;28;20627;-78
2023/05/03 07:15:12;;;;;;;10.63;5.18;;;11.10;99.90;;;;;;5026054;28;20083;-78
2023/05/03 07:17:37;;;;;;;12.98;7.90;;;11.00;99.90;;;;;;5026196;28;20095;-78
2023/05/03 07:20:04;;;;;;;11.88;6.72;;;11.40;99.90;;;;;;5023323;28;20064;-78
2023/05/03 07:22:29;;;;;;;10.05;6.57;;;11.70;99.90;;;;;;5021252;28;20461;-78
2023/05/03 07:24:57;;;;;;;8.18;5.45;;;11.90;99.90;;;;;;5039937;28;20112;-78
2023/05/03 07:27:23;;;;;;;11.65;6.65;;;12.00;99.90;;;;;;5023067;28;20051;-78
2023/05/03 07:29:48;;;;;;;12.95;6.97;;;12.20;99.90;;;;;;5025548;28;20480;-78
2023/05/03 07:32:14;;;;;;;11.05;6.60;;;12.50;99.90;;;;;;5025969;28;20374;-78
2023/05/03 07:34:39;;;;;;;7.47;4.55;;;12.50;99.90;;;;;;5026445;28;20381;-77
2023/05/03 07:37:05;;;;;;;7.15;4.40;;;12.60;99.90;;;;;;5009203;28;20076;-77
2023/05/03 07:39:31;;;;;;;11.77;5.90;;;12.60;99.90;;;;;;5027251;28;20033;-77
2023/05/03 07:41:56;;;;;;;8.27;5.57;;;12.80;99.90;;;;;;5024128;28;20053;-77
2023/05/03 07:44:22;;;;;;;9.82;5.63;;;13.10;99.90;;;;;;5024948;28;20440;-77
2023/05/03 07:46:47;;;;;;;7.85;5.00;;;13.30;99.90;;;;;;5005944;28;20041;-77
2023/05/03 07:49:13;;;;;;;11.57;6.13;;;13.30;99.90;;;;;;5008765;28;20495;-77
2023/05/03 07:51:39;;;;;;;12.02;5.80;;;13.30;99.90;;;;;;5024567;28;20041;-77
2023/05/03 07:54:05;;;;;;;9.57;4.68;;;13.60;99.90;;;;;;5025823;28;20980;-77
2023/05/03 07:56:31;;;;;;;8.23;5.05;;;13.50;99.90;;;;;;5025836;28;20021;-77
2023/05/03 07:58:56;;;;;;;6.38;3.78;;;13.70;99.90;;;;;;5023717;28;20045;-77
2023/05/03 08:01:22;;;;;;;7.50;4.07;;;14.00;99.90;;;;;;5007282;28;20037;-77
2023/05/03 08:03:51;;;;;;;6.13;3.85;;;14.10;99.90;;;;;;5007032;28;20413;-77
2023/05/03 08:06:17;;;;;;;8.88;4.03;;;14.10;99.90;;;;;;5025440;28;20033;-77
2023/05/03 08:08:42;;;;;;;9.55;4.32;;;14.10;99.90;;;;;;5006956;28;20075;-77
2023/05/03 08:11:08;;;;;;;6.45;3.03;;;14.30;99.90;;;;;;5023090;28;20148;-77
2023/05/03 08:13:34;;;;;;;5.03;2.80;;;14.50;99.90;;;;;;5024774;28;20033;-77
2023/05/03 08:15:59;;;;;;;5.47;2.88;;;14.60;99.90;;;;;;5024224;28;20539;-77
2023/05/03 08:18:25;;;;;;;6.63;2.65;;;14.70;99.90;;;;;;5023174;28;20061;-77
2023/05/03 08:20:51;;;;;;;7.70;4.55;;;14.80;99.90;;;;;;5024567;28;20048;-77
2023/05/03 08:23:17;;;;;;;5.25;2.92;;;14.90;99.90;;;;;;5040614;28;20029;-77
2023/05/03 08:25:44;;;;;;;4.78;3.10;;;14.90;99.90;;;;;;5022864;28;20065;-77
2023/05/03 08:28:10;;;;;;;4.03;3.03;;;15.10;99.90;;;;;;5024084;28;20029;-77
2023/05/03 08:30:35;;;;;;;6.93;3.72;;;15.10;99.90;;;;;;5040163;28;20032;-77
2023/05/03 08:33:01;;;;;;;5.55;3.30;;;15.20;99.90;;;;;;5007617;28;20108;-78
2023/05/03 08:35:27;;;;;;;9.85;5.22;;;15.20;99.90;;;;;;5036586;28;20175;-77
2023/05/03 08:37:52;;;;;;;4.65;3.17;;;15.40;99.90;;;;;;5042646;28;20033;-77
2023/05/03 08:40:21;;;;;;;6.75;3.15;;;15.40;99.90;;;;;;5025089;28;20116;-78
2023/05/03 08:42:47;;;;;;;5.72;3.22;;;15.50;99.90;;;;;;5007998;28;20761;-78
2023/05/03 08:45:14;;;;;;;6.35;3.53;;;15.80;99.90;;;;;;5041326;28;20025;-78
2023/05/03 08:47:43;;;;;;;7.07;3.72;;;15.90;99.90;;;;;;5005664;28;20033;-78
2023/05/03 08:50:12;;;;;;;5.55;3.63;;;16.10;99.90;;;;;;5021821;28;20037;-77
2023/05/03 08:52:39;;;;;;;7.07;3.20;;;16.10;99.90;;;;;;5007370;28;20037;-78
2023/05/03 08:55:06;;;;;;;6.78;3.40;;;16.10;99.90;;;;;;5024653;28;20087;-78
2023/05/03 08:57:32;;;;;;;5.00;2.95;;;16.30;98.20;;;;;;5040565;28;20503;-78
2023/05/03 09:00:00;;;;;;;5.63;3.70;;;16.30;98.30;;;;;;5020587;28;20033;-78
2023/05/03 09:02:28;;;;;;;6.93;3.15;;;16.40;98.30;;;;;;5039122;28;20033;-78
2023/05/03 09:04:54;;;;;;;6.10;4.32;;;16.40;98.70;;;;;;5023264;28;20584;-78
2023/05/03 09:07:20;;;;;;;6.95;3.10;;;16.50;97.80;;;;;;5005100;28;20067;-78
2023/05/03 09:09:46;;;;;;;6.75;3.55;;;16.60;97.80;;;;;;5026223;28;20061;-78
2023/05/03 09:12:11;;;;;;;7.25;3.47;;;16.60;96.50;;;;;;5040290;28;20068;-77
2023/05/03 09:14:44;;;;;;;5.90;3.40;;;16.40;97.00;;;;;;5044947;28;20039;-78
2023/05/03 09:17:14;;;;;;;4.60;3.25;;;16.60;96.70;;;;;;5043804;28;20029;-78
2023/05/03 09:19:50;;;;;;;4.95;3.28;;;16.80;97.60;;;;;;5028184;28;20384;-77
2023/05/03 09:22:15;;;;;;;;;;;16.80;97.70;;;;;;5025198;28;20045;-78
2023/05/03 09:25:06;;;;;;;4.97;2.93;;;17.00;95.60;;;;;;5024790;28;20618;-78
2023/05/03 09:27:32;;;;;;;4.57;3.05;;;17.10;96.50;;;;;;5029591;28;20274;-78
2023/05/03 09:29:57;;;;;;;7.20;3.25;;;17.20;96.80;;;;;;5008975;28;20036;-78
2023/05/03 09:32:23;;;;;;;5.32;3.33;;;17.40;96.60;;;;;;5025072;28;20044;-78
2023/05/03 09:34:49;;;;;;;5.75;3.42;;;17.40;96.30;;;;;;5021133;28;20145;-77
2023/05/03 09:37:15;;;;;;;12.18;4.05;;;17.70;95.90;;;;;;5043138;28;20580;-77
2023/05/03 09:39:41;;;;;;;6.53;3.35;;;17.70;94.00;;;;;;5038963;28;20037;-77
2023/05/03 09:42:16;;;;;;;7.47;3.63;;;17.60;94.80;;;;;;5041893;28;20515;-78
2023/05/03 09:44:47;;;;;;;4.57;3.25;;;17.70;94.00;;;;;;5039696;28;20029;-78
2023/05/03 09:47:13;;;;;;;5.88;3.22;;;17.80;93.30;;;;;;5028018;28;20040;-77
2023/05/03 09:49:39;;;;;;;5.70;3.60;;;17.90;91.20;;;;;;5023148;28;20044;-78
2023/05/03 09:52:05;;;;;;;6.40;3.50;;;17.70;91.80;;;;;;5026382;28;20107;-77
2023/05/03 09:54:31;;;;;;;4.03;3.63;;;17.90;92.60;;;;;;5041484;28;20036;-77
2023/05/03 09:56:58;;;;;;;9.95;4.43;;;18.00;90.80;;;;;;5041477;28;20033;-77
2023/05/03 09:59:23;;;;;;;6.93;3.00;;;18.00;90.20;;;;;;5024209;28;20033;-77
2023/05/03 10:01:50;;;;;;;5.78;2.40;;;18.00;91.80;;;;;;5009037;28;20045;-77
2023/05/03 10:04:18;;;;;;;6.68;3.50;;;18.90;90.30;;;;;;5026367;28;20378;-78
2023/05/03 10:06:44;;;;;;;4.07;3.10;;;18.70;91.50;;;;;;5039733;28;20032;-77
2023/05/03 10:09:23;;;;;;;4.30;2.88;;;18.60;91.30;;;;;;5035667;28;20029;-77
2023/05/03 10:11:52;;;;;;;3.30;2.40;;;18.80;91.20;;;;;;5025244;28;20389;-77
2023/05/03 10:14:19;;;;;;;4.05;2.78;;;18.90;90.50;;;;;;5027660;28;20039;-78
2023/05/03 10:16:46;;;;;;;7.05;3.65;;;18.90;88.40;;;;;;5022798;28;20429;-78
2023/05/03 10:19:15;;;;;;;5.93;3.65;;;18.80;88.80;;;;;;5035826;28;20369;-76
2023/05/03 10:22:05;;;;;;;6.78;3.28;;;18.80;85.30;;;;;;5040462;28;20749;-76
2023/05/03 10:24:31;;;;;;;8.93;3.17;;;18.70;87.40;;;;;;5042197;28;21685;-76
2023/05/03 10:26:57;;;;;;;5.30;2.80;;;18.70;83.70;;;;;;5010029;28;20041;-76
2023/05/03 10:29:44;;;;;;;7.53;3.53;;;18.80;89.10;;;;;;5005314;28;20041;-76
2023/05/03 10:32:33;;;;;;;5.78;2.65;;;19.00;87.70;;;;;;5039380;28;20499;-76
2023/05/03 10:35:00;;;;;;;6.85;2.90;;;18.90;84.20;;;;;;5027089;28;20813;-76
2023/05/03 10:37:26;;;;;;;5.43;3.20;;;19.00;82.90;;;;;;5008676;28;20040;-76
2023/05/03 10:39:52;;;;;;;4.95;3.25;;;19.00;81.70;;;;;;5011139;28;20261;-76
2023/05/03 10:42:23;;;;;;;3.63;2.92;;;18.90;82.90;;;;;;5011147;28;20041;-76
2023/05/03 10:44:52;;;;;;;5.57;2.97;;;18.90;79.90;;;;;;5009457;28;20049;-76
2023/05/03 10:47:22;;;;;;;5.35;2.70;;;19.00;83.90;;;;;;5038794;28;20507;-76
2023/05/03 10:50:07;;;;;;;5.95;2.85;;;19.20;82.70;;;;;;5024756;28;20048;-76
2023/05/03 10:52:38;;;;;;;3.72;2.72;;;19.20;80.30;;;;;;5051338;28;20037;-76
2023/05/03 10:55:16;;;;;;;4.45;2.80;;;19.20;82.50;;;;;;5042883;28;20040;-76
2023/05/03 10:57:43;;;;;;;7.20;2.72;;;19.30;79.60;;;;;;5041011;28;20519;-76
2023/05/03 11:00:47;;;;;;;8.68;3.22;;;19.40;77.90;;;;;;5026506;28;20037;-76
2023/05/03 11:03:37;;;;;;;2.63;1.80;;;19.30;77.50;;;;;;4984377;28;21601;-76
2023/05/03 11:06:04;;;;;;;6.25;3.25;;;19.40;81.50;;;;;;4985105;28;20037;-75
2023/05/03 11:08:36;;;;;;;7.78;3.22;;;19.60;77.00;;;;;;5019750;28;20040;-75
2023/05/03 11:11:04;;;;;;;7.40;3.75;;;19.90;80.50;;;;;;5042875;28;20036;-75
2023/05/03 11:13:29;;;;;;;7.35;3.60;;;19.80;78.10;;;;;;5023891;28;20041;-76
2023/05/03 11:15:55;;;;;;;4.75;2.85;;;19.60;75.90;;;;;;5041689;28;20033;-75
2023/05/03 11:18:21;;;;;;;5.03;2.90;;;19.70;77.60;;;;;;5025920;28;20025;-76
2023/05/03 11:20:46;;;;;;;6.78;3.65;;;19.80;78.00;;;;;;5026680;28;20376;-75
2023/05/03 11:23:12;;;;;;;4.15;2.35;;;20.00;77.20;;;;;;5020720;28;20475;-75
2023/05/03 11:25:38;;;;;;;5.30;3.13;;;20.20;80.50;;;;;;5007534;28;20436;-76
2023/05/03 11:28:04;;;;;;;7.35;3.28;;;20.40;79.90;;;;;;5005120;28;20127;-76
2023/05/03 11:30:31;;;;;;;7.13;3.15;;;20.60;80.10;;;;;;5042974;28;20455;-76
2023/05/03 11:32:58;;;;;;;3.33;2.95;;;20.50;75.80;;;;;;5008624;28;20083;-75
2023/05/03 11:35:25;;;;;;;6.50;2.78;;;20.50;74.50;;;;;;5016907;28;20039;-75
2023/05/03 11:37:51;;;;;;;3.97;2.67;;;20.60;72.90;;;;;;5020993;28;20488;-76
2023/05/03 11:40:17;;;;;;;6.13;3.00;;;20.60;73.30;;;;;;5008873;28;20039;-75
2023/05/03 11:42:55;;;;;;;4.45;2.83;;;20.50;71.40;;;;;;5009047;28;20029;-75
2023/05/03 11:45:44;;;;;;;6.68;3.63;;;20.60;71.60;;;;;;5041667;28;20112;-76
2023/05/03 11:48:11;;;;;;;5.80;2.97;;;20.80;69.20;;;;;;5034035;28;20044;-75
2023/05/03 11:50:46;;;;;;;4.57;3.25;;;20.80;70.60;;;;;;5026046;28;20102;-78
2023/05/03 11:53:13;;;;;;;5.43;2.92;;;20.70;66.60;;;;;;5041784;28;20031;-75
2023/05/03 11:55:41;;;;;;;4.68;3.10;;;20.70;68.20;;;;;;5024843;28;20406;-76
2023/05/03 11:58:16;;;;;;;5.65;3.05;;;20.80;69.60;;;;;;5039203;28;20087;-76
2023/05/03 12:00:44;;;;;;;4.85;2.50;;;20.90;70.70;;;;;;5023278;28;20577;-75
2023/05/03 12:03:09;;;;;;;5.13;3.05;;;21.10;73.80;;;;;;5019849;28;20044;-76
2023/05/03 12:05:35;;;;;;;7.20;2.83;;;21.10;68.70;;;;;;5007603;28;20486;-76
2023/05/03 12:08:01;;;;;;;4.57;3.25;;;21.10;68.10;;;;;;5021002;28;20440;-76
2023/05/03 12:10:30;;;;;;;4.40;3.08;;;21.20;69.20;;;;;;5007606;28;20025;-76
2023/05/03 12:12:58;;;;;;;3.95;2.20;;;21.20;69.80;;;;;;5024908;28;20120;-76
2023/05/03 12:15:34;;;;;;;5.95;2.97;;;21.30;70.30;;;;;;5020726;28;20048;-75
2023/05/03 12:18:10;;;;;;;4.90;3.03;;;21.40;68.40;;;;;;5020739;28;20029;-76
2023/05/03 12:20:36;;;;;;;5.95;3.50;;;21.70;71.90;;;;;;5004984;28;20036;-76
2023/05/03 12:23:04;;;;;;;7.65;3.67;;;21.70;65.50;;;;;;5007622;28;20598;-76
2023/05/03 12:25:30;;;;;;;4.43;3.13;;;21.80;66.30;;;;;;5024333;28;20029;-76
2023/05/03 12:27:57;;;;;;;7.57;3.53;;;21.80;63.40;;;;;;5021435;28;20496;-77
2023/05/03 12:30:23;;;;;;;4.93;3.30;;;21.90;64.60;;;;;;5023892;28;20064;-77
2023/05/03 12:32:49;;;;;;;4.85;3.58;;;22.00;64.70;;;;;;5024263;28;20509;-76
2023/05/03 12:35:15;;;;;;;5.40;4.05;;;21.90;62.00;;;;;;5040394;28;20041;-77
2023/05/03 12:37:40;;;;;;;5.03;3.17;;;21.90;59.30;;;;;;5002835;28;20044;-77
2023/05/03 12:40:07;;;;;;;6.88;3.17;;;22.20;64.90;;;;;;5022611;28;20032;-77
2023/05/03 12:42:33;;;;;;;6.07;2.60;;;21.80;64.40;;;;;;5020772;28;20041;-76
2023/05/03 12:44:58;;;;;;;3.88;2.85;;;21.90;64.80;;;;;;5026489;28;20048;-77
2023/05/03 12:47:24;;;;;;;8.50;3.47;;;22.00;60.40;;;;;;5008031;28;20095;-76
2023/05/03 12:49:50;;;;;;;6.00;3.58;;;22.20;62.50;;;;;;5024194;28;20033;-76